Time;durP1;ratioP1;P1;durP2;ratioP2;P2;SDS_P1;SDS_P2;PMS_P1;PMS_P2;Temp;Humidity;BMP_temperature;BMP_pressure;BME280_temperature;BME280_humidity;BME280_pressure;Samples;Min_cycle;Max_cycle;Signal;HPM_P1;HPM_P2
2024/01/12 00:00:57;;;;;;;0.40;0.40;;;;;;;;;;5114471;28;20241;-73
2024/01/12 00:03:23;;;;;;;0.37;0.37;;;;;;;;;;5124594;28;20560;-72
2024/01/12 00:05:50;;;;;;;0.63;0.63;;;;;;;;;;5114317;28;20238;-73
2024/01/12 00:08:18;;;;;;;0.30;0.30;;;;;;;;;;5124537;28;20208;-73
2024/01/12 00:10:54;;;;;;;0.30;0.30;;;;;;;;;;5114508;28;20238;-72
2024/01/12 00:13:22;;;;;;;0.33;0.33;;;;;;;;;;5124757;28;20197;-73
2024/01/12 00:15:48;;;;;;;0.30;0.30;;;;;;;;;;5114237;28;20248;-72
2024/01/12 00:18:15;;;;;;;0.30;0.30;;;;;;;;;;5124336;28;20406;-73
2024/01/12 00:20:43;;;;;;;0.30;0.30;;;;;;;;;;5114410;28;20238;-72
2024/01/12 00:23:10;;;;;;;0.30;0.30;;;;;;;;;;5124633;28;20247;-72
2024/01/12 00:25:37;;;;;;;0.30;0.30;;;;;;;;;;5114081;28;20252;-73
2024/01/12 00:28:04;;;;;;;0.30;0.30;;;;;;;;;;5124176;28;20186;-72
2024/01/12 00:30:30;;;;;;;0.30;0.30;;;;;;;;;;5114234;28;20246;-73
2024/01/12 00:32:57;;;;;;;0.30;0.30;;;;;;;;;;5124178;28;20257;-73
2024/01/12 00:35:23;;;;;;;0.30;0.30;;;;;;;;;;5113843;28;20237;-73
2024/01/12 00:37:50;;;;;;;0.30;0.30;;;;;;;;;;5123725;28;20245;-72
2024/01/12 00:40:16;;;;;;;0.30;0.30;;;;;;;;;;5114056;28;20517;-73
2024/01/12 00:42:44;;;;;;;0.30;0.30;;;;;;;;;;5123933;28;20191;-73
2024/01/12 00:45:10;;;;;;;0.30;0.30;;;;;;;;;;5114053;28;20429;-73
2024/01/12 00:47:37;;;;;;;0.30;0.30;;;;;;;;;;5123377;28;20267;-72
2024/01/12 00:50:03;;;;;;;0.30;0.30;;;;;;;;;;5124550;28;20202;-73
2024/01/12 00:52:30;;;;;;;0.30;0.30;;;;;;;;;;5112805;28;20292;-72
2024/01/12 00:54:56;;;;;;;2.40;2.30;;;;;;;;;;5124250;28;20208;-72
2024/01/12 00:57:23;;;;;;;0.30;0.30;;;;;;;;;;5112760;28;20257;-73
2024/01/12 00:59:51;;;;;;;0.30;0.30;;;;;;;;;;5124497;28;20210;-73
2024/01/12 01:02:17;;;;;;;0.30;0.30;;;;;;;;;;5112483;28;20251;-73
2024/01/12 01:04:44;;;;;;;0.30;0.30;;;;;;;;;;5124031;28;20245;-72
2024/01/12 01:07:10;;;;;;;0.30;0.30;;;;;;;;;;5112474;28;20244;-72
2024/01/12 01:09:37;;;;;;;0.30;0.30;;;;;;;;;;5124177;28;20212;-73
2024/01/12 01:12:03;;;;;;;0.30;0.30;;;;;;;;;;5112590;28;20496;-72
2024/01/12 01:14:30;;;;;;;0.30;0.30;;;;;;;;;;5124261;28;20260;-73
2024/01/12 01:16:57;;;;;;;0.30;0.30;;;;;;;;;;5112613;28;20514;-73
2024/01/12 01:19:24;;;;;;;0.30;0.30;;;;;;;;;;5123733;28;20459;-73
2024/01/12 01:21:50;;;;;;;0.30;0.30;;;;;;;;;;5112470;28;20482;-72
2024/01/12 01:24:17;;;;;;;0.30;0.30;;;;;;;;;;5124051;28;20211;-72
2024/01/12 01:26:43;;;;;;;0.30;0.30;;;;;;;;;;5112328;28;20237;-72
2024/01/12 01:29:09;;;;;;;0.30;0.30;;;;;;;;;;5123587;28;20269;-72
2024/01/12 01:31:36;;;;;;;0.30;0.30;;;;;;;;;;5112418;28;20257;-72
2024/01/12 01:34:04;;;;;;;0.30;0.30;;;;;;;;;;5123488;28;20249;-72
2024/01/12 01:36:30;;;;;;;0.30;0.30;;;;;;;;;;5112394;28;20238;-72
2024/01/12 01:38:56;;;;;;;0.30;0.30;;;;;;;;;;5123678;28;20267;-73
2024/01/12 01:41:23;;;;;;;0.30;0.30;;;;;;;;;;5112663;28;20567;-73
2024/01/12 01:43:49;;;;;;;0.30;0.30;;;;;;;;;;5125170;28;20204;-73
2024/01/12 01:46:16;;;;;;;0.40;0.40;;;;;;;;;;5116859;28;20331;-72
2024/01/12 01:48:42;;;;;;;0.30;0.30;;;;;;;;;;5127621;28;20229;-73
2024/01/12 01:51:10;;;;;;;0.30;0.30;;;;;;;;;;5116603;28;20249;-73
2024/01/12 01:53:37;;;;;;;0.30;0.30;;;;;;;;;;5127665;28;20421;-73
2024/01/12 01:56:04;;;;;;;0.30;0.30;;;;;;;;;;5116952;28;20464;-73
2024/01/12 01:58:30;;;;;;;0.30;0.30;;;;;;;;;;5127165;28;20228;-73
2024/01/12 02:00:57;;;;;;;0.30;0.30;;;;;;;;;;5116694;28;20248;-73
2024/01/12 02:03:23;;;;;;;0.30;0.30;;;;;;;;;;5126855;28;20203;-73
2024/01/12 02:05:51;;;;;;;0.30;0.30;;;;;;;;;;5116517;28;20258;-73
2024/01/12 02:08:18;;;;;;;0.30;0.30;;;;;;;;;;5126846;28;20232;-73
2024/01/12 02:10:52;;;;;;;0.30;0.30;;;;;;;;;;5116604;28;20486;-72
2024/01/12 02:13:18;;;;;;;0.30;0.30;;;;;;;;;;5127090;28;20474;-72
2024/01/12 02:15:45;;;;;;;0.30;0.30;;;;;;;;;;5116441;28;20239;-72
2024/01/12 02:18:11;;;;;;;0.30;0.30;;;;;;;;;;5126947;28;20571;-73
2024/01/12 02:20:38;;;;;;;0.30;0.30;;;;;;;;;;5116558;28;20242;-73
2024/01/12 02:23:05;;;;;;;0.30;0.30;;;;;;;;;;5126826;28;20217;-73
2024/01/12 02:25:32;;;;;;;0.30;0.30;;;;;;;;;;5116216;28;20261;-72
2024/01/12 02:27:58;;;;;;;0.30;0.30;;;;;;;;;;5126302;28;20198;-72
2024/01/12 02:30:25;;;;;;;0.30;0.30;;;;;;;;;;5116463;28;20438;-72
2024/01/12 02:32:51;;;;;;;0.30;0.30;;;;;;;;;;5126562;28;20214;-72
2024/01/12 02:35:17;;;;;;;4.20;3.23;;;;;;;;;;5116438;28;20321;-73
2024/01/12 02:37:44;;;;;;;0.30;0.30;;;;;;;;;;5126353;28;20230;-71
2024/01/12 02:40:12;;;;;;;0.33;0.33;;;;;;;;;;5116294;28;20265;-73
2024/01/12 02:42:38;;;;;;;0.30;0.30;;;;;;;;;;5126210;28;20419;-73
2024/01/12 02:45:05;;;;;;;0.30;0.30;;;;;;;;;;5127103;28;20210;-72
2024/01/12 02:47:31;;;;;;;0.30;0.30;;;;;;;;;;5115287;28;20241;-73
2024/01/12 02:49:58;;;;;;;0.30;0.30;;;;;;;;;;5126947;28;20526;-73
2024/01/12 02:52:24;;;;;;;0.30;0.30;;;;;;;;;;5115032;28;20244;-72
2024/01/12 02:54:50;;;;;;;0.30;0.30;;;;;;;;;;5125385;28;20210;-73
2024/01/12 02:57:18;;;;;;;0.37;0.37;;;;;;;;;;5114680;28;20253;-73
2024/01/12 02:59:45;;;;;;;0.30;0.30;;;;;;;;;;5126466;28;20225;-73
2024/01/12 03:02:11;;;;;;;0.30;0.30;;;;;;;;;;5114865;28;20490;-73
2024/01/12 03:04:37;;;;;;;0.30;0.30;;;;;;;;;;5126385;28;20241;-73
2024/01/12 03:07:04;;;;;;;0.30;0.30;;;;;;;;;;5114828;28;20487;-73
2024/01/12 03:09:30;;;;;;;0.30;0.30;;;;;;;;;;5126346;28;20205;-73
2024/01/12 03:11:56;;;;;;;0.30;0.30;;;;;;;;;;5114833;28;20299;-73
2024/01/12 03:14:24;;;;;;;0.30;0.30;;;;;;;;;;5126027;28;20240;-73
2024/01/12 03:16:51;;;;;;;0.30;0.30;;;;;;;;;;5114763;28;20457;-72
2024/01/12 03:19:17;;;;;;;0.30;0.30;;;;;;;;;;5125867;28;20462;-73
2024/01/12 03:21:43;;;;;;;0.30;0.30;;;;;;;;;;5114656;28;20247;-73
2024/01/12 03:24:10;;;;;;;0.30;0.30;;;;;;;;;;5125872;28;20209;-73
2024/01/12 03:26:36;;;;;;;0.30;0.30;;;;;;;;;;5114635;28;20316;-73
2024/01/12 03:29:03;;;;;;;0.30;0.30;;;;;;;;;;5126043;28;20385;-72
2024/01/12 03:31:30;;;;;;;0.30;0.30;;;;;;;;;;5114545;28;20280;-72
2024/01/12 03:33:57;;;;;;;0.30;0.30;;;;;;;;;;5125608;28;20204;-72
2024/01/12 03:36:23;;;;;;;0.30;0.30;;;;;;;;;;5114405;28;20250;-73
2024/01/12 03:38:53;;;;;;;0.30;0.30;;;;;;;;;;5125408;28;20260;-72
2024/01/12 03:41:19;;;;;;;0.30;0.30;;;;;;;;;;5114593;28;20574;-73
2024/01/12 03:43:45;;;;;;;0.30;0.30;;;;;;;;;;5125543;28;20204;-73
2024/01/12 03:46:12;;;;;;;0.30;0.30;;;;;;;;;;5114576;28;20531;-72
2024/01/12 03:48:41;;;;;;;0.30;0.30;;;;;;;;;;5125102;28;20200;-73
2024/01/12 03:51:07;;;;;;;0.30;0.30;;;;;;;;;;5114414;28;20596;-72
2024/01/12 03:53:33;;;;;;;0.30;0.30;;;;;;;;;;5124987;28;20573;-72
2024/01/12 03:56:00;;;;;;;0.30;0.30;;;;;;;;;;5114382;28;20237;-73
2024/01/12 03:58:26;;;;;;;0.30;0.30;;;;;;;;;;5124750;28;20292;-73
2024/01/12 04:00:53;;;;;;;0.30;0.30;;;;;;;;;;5114432;28;20312;-73
2024/01/12 04:03:19;;;;;;;0.30;0.30;;;;;;;;;;5124563;28;20271;-73
2024/01/12 04:05:47;;;;;;;0.37;0.37;;;;;;;;;;5113949;28;20245;-73
2024/01/12 04:08:13;;;;;;;0.30;0.30;;;;;;;;;;5124494;28;20264;-73
2024/01/12 04:10:39;;;;;;;0.30;0.30;;;;;;;;;;5114346;28;20560;-73
2024/01/12 04:13:06;;;;;;;0.30;0.30;;;;;;;;;;5124762;28;20389;-72
2024/01/12 04:15:32;;;;;;;3.27;3.13;;;;;;;;;;5114414;28;20246;-73
2024/01/12 04:17:58;;;;;;;0.30;0.30;;;;;;;;;;5124547;28;20258;-73
2024/01/12 04:20:25;;;;;;;0.93;0.93;;;;;;;;;;5114407;28;20293;-72
2024/01/12 04:22:53;;;;;;;0.30;0.30;;;;;;;;;;5123994;28;20229;-73
2024/01/12 04:25:19;;;;;;;0.30;0.30;;;;;;;;;;5114398;28;20385;-73
2024/01/12 04:27:45;;;;;;;0.30;0.30;;;;;;;;;;5124316;28;20192;-73
2024/01/12 04:30:12;;;;;;;0.30;0.30;;;;;;;;;;5114041;28;20258;-73
2024/01/12 04:32:37;;;;;;;0.30;0.30;;;;;;;;;;5124052;28;20229;-73
2024/01/12 04:35:04;;;;;;;0.50;0.50;;;;;;;;;;5124514;28;20401;-73
2024/01/12 04:37:30;;;;;;;0.30;0.30;;;;;;;;;;5113121;28;20239;-73
2024/01/12 04:39:58;;;;;;;0.30;0.30;;;;;;;;;;5124452;28;20255;-73
2024/01/12 04:42:24;;;;;;;0.30;0.30;;;;;;;;;;5112891;28;20381;-72
2024/01/12 04:44:51;;;;;;;0.30;0.30;;;;;;;;;;5124355;28;20204;-72
2024/01/12 04:47:17;;;;;;;0.30;0.30;;;;;;;;;;5112706;28;20244;-73
2024/01/12 04:49:44;;;;;;;0.30;0.30;;;;;;;;;;5124737;28;20200;-72
2024/01/12 04:52:10;;;;;;;0.30;0.30;;;;;;;;;;5112716;28;20237;-73
2024/01/12 04:54:36;;;;;;;0.30;0.30;;;;;;;;;;5124302;28;20425;-73
2024/01/12 04:57:05;;;;;;;0.30;0.30;;;;;;;;;;5112699;28;20452;-73
2024/01/12 04:59:31;;;;;;;0.30;0.30;;;;;;;;;;5124267;28;20242;-73
2024/01/12 05:01:57;;;;;;;0.30;0.30;;;;;;;;;;5112579;28;20494;-73
2024/01/12 05:04:24;;;;;;;0.30;0.30;;;;;;;;;;5123841;28;20426;-72
2024/01/12 05:06:50;;;;;;;0.30;0.30;;;;;;;;;;5112489;28;20303;-73
2024/01/12 05:09:16;;;;;;;0.30;0.30;;;;;;;;;;5123999;28;20199;-73
2024/01/12 05:11:43;;;;;;;0.30;0.30;;;;;;;;;;5112742;28;20297;-73
2024/01/12 05:14:11;;;;;;;0.30;0.30;;;;;;;;;;5124088;28;20232;-73
2024/01/12 05:16:37;;;;;;;0.30;0.30;;;;;;;;;;5112591;28;20643;-73
2024/01/12 05:19:03;;;;;;;0.30;0.30;;;;;;;;;;5123283;28;20256;-73
2024/01/12 05:21:30;;;;;;;0.30;0.30;;;;;;;;;;5112444;28;20250;-73
2024/01/12 05:23:56;;;;;;;0.30;0.30;;;;;;;;;;5123552;28;20570;-72
2024/01/12 05:26:23;;;;;;;0.40;0.40;;;;;;;;;;5112415;28;20243;-73
2024/01/12 05:28:49;;;;;;;0.30;0.30;;;;;;;;;;5123597;28;20207;-73
2024/01/12 05:31:17;;;;;;;0.30;0.30;;;;;;;;;;5112528;28;20248;-74
2024/01/12 05:33:43;;;;;;;0.40;0.40;;;;;;;;;;5123529;28;20196;-73
2024/01/12 05:36:10;;;;;;;0.30;0.30;;;;;;;;;;5112703;28;20240;-73
2024/01/12 05:38:36;;;;;;;0.30;0.30;;;;;;;;;;5123274;28;20213;-73
2024/01/12 05:41:02;;;;;;;0.30;0.30;;;;;;;;;;5112646;28;20241;-73
2024/01/12 05:43:29;;;;;;;0.30;0.30;;;;;;;;;;5123150;28;20232;-73
2024/01/12 05:45:55;;;;;;;0.30;0.30;;;;;;;;;;5112546;28;20293;-73
2024/01/12 05:48:23;;;;;;;0.30;0.30;;;;;;;;;;5122989;28;20232;-73
2024/01/12 05:50:50;;;;;;;0.30;0.30;;;;;;;;;;5112861;28;20611;-73
2024/01/12 05:53:21;;;;;;;0.23;0.23;;;;;;;;;;5122956;28;20202;-73
2024/01/12 05:55:48;;;;;;;0.30;0.30;;;;;;;;;;5112739;28;20239;-73
2024/01/12 05:58:15;;;;;;;0.30;0.30;;;;;;;;;;5121271;28;20201;-73
2024/01/12 06:00:42;;;;;;;0.30;0.30;;;;;;;;;;5113060;28;20257;-73
2024/01/12 06:03:08;;;;;;;0.30;0.30;;;;;;;;;;5122615;28;20240;-73
2024/01/12 06:05:36;;;;;;;0.30;0.30;;;;;;;;;;5112631;28;20307;-73
2024/01/12 06:08:02;;;;;;;0.40;0.40;;;;;;;;;;5122701;28;20224;-72
2024/01/12 06:10:29;;;;;;;0.30;0.30;;;;;;;;;;5112963;28;20249;-73
2024/01/12 06:12:55;;;;;;;0.30;0.30;;;;;;;;;;5122585;28;20217;-73
2024/01/12 06:15:23;;;;;;;0.30;0.30;;;;;;;;;;5112926;28;20254;-73
2024/01/12 06:17:49;;;;;;;0.30;0.30;;;;;;;;;;5122903;28;20425;-73
2024/01/12 06:20:16;;;;;;;0.30;0.30;;;;;;;;;;5112615;28;20222;-73
2024/01/12 06:22:44;;;;;;;0.30;0.30;;;;;;;;;;5122735;28;20192;-72
2024/01/12 06:25:10;;;;;;;0.30;0.30;;;;;;;;;;5112890;28;20278;-73
2024/01/12 06:27:36;;;;;;;0.30;0.30;;;;;;;;;;5122179;28;20347;-73
2024/01/12 06:30:03;;;;;;;0.50;0.50;;;;;;;;;;5125400;28;20354;-73
2024/01/12 06:32:29;;;;;;;0.30;0.30;;;;;;;;;;5115409;28;20323;-73
2024/01/12 06:34:56;;;;;;;0.30;0.30;;;;;;;;;;5127236;28;20204;-73
2024/01/12 06:37:22;;;;;;;0.30;0.30;;;;;;;;;;5115383;28;20237;-73
2024/01/12 06:39:50;;;;;;;0.77;0.77;;;;;;;;;;5127376;28;20495;-73
2024/01/12 06:42:17;;;;;;;0.30;0.30;;;;;;;;;;5115163;28;20240;-73
2024/01/12 06:44:43;;;;;;;0.30;0.30;;;;;;;;;;5127155;28;20202;-73
2024/01/12 06:47:10;;;;;;;0.30;0.30;;;;;;;;;;5115169;28;20275;-73
2024/01/12 06:49:36;;;;;;;0.30;0.30;;;;;;;;;;5126764;28;20275;-73
2024/01/12 06:52:03;;;;;;;0.30;0.30;;;;;;;;;;5115217;28;20303;-73
2024/01/12 06:54:29;;;;;;;0.30;0.30;;;;;;;;;;5126946;28;20205;-73
2024/01/12 06:56:58;;;;;;;0.30;0.30;;;;;;;;;;5115192;28;20240;-74
2024/01/12 06:59:24;;;;;;;0.30;0.30;;;;;;;;;;5126785;28;20232;-74
2024/01/12 07:01:51;;;;;;;0.30;0.30;;;;;;;;;;5115165;28;20251;-74
2024/01/12 07:04:17;;;;;;;0.30;0.30;;;;;;;;;;5126471;28;20218;-74
2024/01/12 07:06:44;;;;;;;0.30;0.30;;;;;;;;;;5115145;28;20428;-73
2024/01/12 07:09:12;;;;;;;0.30;0.30;;;;;;;;;;5126284;28;20211;-72
2024/01/12 07:11:40;;;;;;;0.30;0.30;;;;;;;;;;5115100;28;20244;-72
2024/01/12 07:14:08;;;;;;;0.30;0.30;;;;;;;;;;5126010;28;20197;-72
2024/01/12 07:16:35;;;;;;;0.30;0.30;;;;;;;;;;5115008;28;20262;-72
2024/01/12 07:19:01;;;;;;;0.30;0.30;;;;;;;;;;5126169;28;20213;-72
2024/01/12 07:21:28;;;;;;;0.30;0.30;;;;;;;;;;5115028;28;20507;-72
2024/01/12 07:23:54;;;;;;;0.30;0.30;;;;;;;;;;5125846;28;20213;-72
2024/01/12 07:26:19;;;;;;;0.30;0.30;;;;;;;;;;5114887;28;20283;-72
2024/01/12 07:28:46;;;;;;;0.30;0.30;;;;;;;;;;5125634;28;20202;-72
2024/01/12 07:31:14;;;;;;;0.30;0.30;;;;;;;;;;5115100;28;20315;-73
2024/01/12 07:33:41;;;;;;;0.30;0.30;;;;;;;;;;5125703;28;20208;-73
2024/01/12 07:36:08;;;;;;;0.37;0.37;;;;;;;;;;5114800;28;20248;-74
2024/01/12 07:38:35;;;;;;;0.30;0.30;;;;;;;;;;5125629;28;20202;-73
2024/01/12 07:41:01;;;;;;;0.30;0.30;;;;;;;;;;5114147;28;20450;-72
2024/01/12 07:43:30;;;;;;;0.30;0.30;;;;;;;;;;5125512;28;20213;-72
2024/01/12 07:45:57;;;;;;;0.40;0.40;;;;;;;;;;5114795;28;20247;-72
2024/01/12 07:48:25;;;;;;;0.37;0.37;;;;;;;;;;5125293;28;20233;-72
2024/01/12 07:50:51;;;;;;;0.30;0.30;;;;;;;;;;5114916;28;20442;-72
2024/01/12 07:53:18;;;;;;;0.30;0.30;;;;;;;;;;5125297;28;20192;-72
2024/01/12 07:55:44;;;;;;;0.30;0.30;;;;;;;;;;5114818;28;20260;-72
2024/01/12 07:58:11;;;;;;;0.30;0.30;;;;;;;;;;5125072;28;20283;-72
2024/01/12 08:00:37;;;;;;;0.30;0.30;;;;;;;;;;5114584;28;20254;-72
2024/01/12 08:03:04;;;;;;;0.30;0.30;;;;;;;;;;5124852;28;20217;-72
2024/01/12 08:05:31;;;;;;;0.30;0.30;;;;;;;;;;5114418;28;20258;-72
2024/01/12 08:07:58;;;;;;;0.30;0.30;;;;;;;;;;5124257;28;20215;-71
2024/01/12 08:10:24;;;;;;;0.30;0.30;;;;;;;;;;5114559;28;20226;-74
2024/01/12 08:12:51;;;;;;;0.30;0.30;;;;;;;;;;5124196;28;20403;-74
2024/01/12 08:15:17;;;;;;;0.30;0.30;;;;;;;;;;5114194;28;20403;-74
2024/01/12 08:17:44;;;;;;;0.50;0.50;;;;;;;;;;5124523;28;20198;-74
2024/01/12 08:20:11;;;;;;;0.30;0.30;;;;;;;;;;5114385;28;20293;-74
2024/01/12 08:22:38;;;;;;;0.33;0.33;;;;;;;;;;5124053;28;20235;-74
2024/01/12 08:25:06;;;;;;;0.30;0.30;;;;;;;;;;5124851;28;20205;-74
2024/01/12 08:27:32;;;;;;;0.30;0.30;;;;;;;;;;5113372;28;20327;-76
2024/01/12 08:29:58;;;;;;;0.30;0.30;;;;;;;;;;5125139;28;20451;-75
2024/01/12 08:32:25;;;;;;;0.30;0.30;;;;;;;;;;5113442;28;20418;-76
2024/01/12 08:34:51;;;;;;;13.90;6.70;;;;;;;;;;5124744;28;20513;-75
2024/01/12 08:37:18;;;;;;;0.30;0.30;;;;;;;;;;5113200;28;20253;-77
2024/01/12 08:39:45;;;;;;;0.30;0.30;;;;;;;;;;5124504;28;20226;-76
2024/01/12 08:42:12;;;;;;;0.30;0.30;;;;;;;;;;5113021;28;20544;-74
2024/01/12 08:44:39;;;;;;;0.30;0.30;;;;;;;;;;5124835;28;20202;-75
2024/01/12 08:47:05;;;;;;;0.30;0.30;;;;;;;;;;5113221;28;20311;-74
2024/01/12 08:49:32;;;;;;;0.30;0.30;;;;;;;;;;5124589;28;20502;-74
2024/01/12 08:51:58;;;;;;;0.30;0.30;;;;;;;;;;5112955;28;20263;-74
2024/01/12 08:54:25;;;;;;;0.30;0.30;;;;;;;;;;5124319;28;20224;-75
2024/01/12 08:56:53;;;;;;;0.20;0.20;;;;;;;;;;5113134;28;20288;-74
2024/01/12 08:59:20;;;;;;;0.30;0.30;;;;;;;;;;5124219;28;20278;-74
2024/01/12 09:01:46;;;;;;;0.30;0.30;;;;;;;;;;5112940;28;20439;-75
2024/01/12 09:04:13;;;;;;;0.30;0.30;;;;;;;;;;5124079;28;20210;-74
2024/01/12 09:06:39;;;;;;;0.30;0.30;;;;;;;;;;5112813;28;20240;-75
2024/01/12 09:09:06;;;;;;;0.30;0.30;;;;;;;;;;5124114;28;20443;-75
2024/01/12 09:11:32;;;;;;;0.30;0.30;;;;;;;;;;5113057;28;20424;-75
2024/01/12 09:14:00;;;;;;;0.30;0.30;;;;;;;;;;5124229;28;20449;-75
2024/01/12 09:16:26;;;;;;;0.30;0.30;;;;;;;;;;5112860;28;20241;-75
2024/01/12 09:18:53;;;;;;;0.30;0.30;;;;;;;;;;5124021;28;20275;-75
2024/01/12 09:21:19;;;;;;;0.40;0.40;;;;;;;;;;5112753;28;20241;-74
2024/01/12 09:23:46;;;;;;;0.30;0.30;;;;;;;;;;5123669;28;20277;-75
2024/01/12 09:26:12;;;;;;;0.30;0.30;;;;;;;;;;5112984;28;20239;-76
2024/01/12 09:28:39;;;;;;;0.40;0.40;;;;;;;;;;5123919;28;20209;-75
2024/01/12 09:31:08;;;;;;;0.33;0.33;;;;;;;;;;5113156;28;20240;-77
2024/01/12 09:33:34;;;;;;;0.40;0.40;;;;;;;;;;5123682;28;20438;-76
2024/01/12 09:36:02;;;;;;;0.30;0.30;;;;;;;;;;5113076;28;20241;-77
2024/01/12 09:38:28;;;;;;;0.30;0.30;;;;;;;;;;5123671;28;20413;-75
2024/01/12 09:40:55;;;;;;;0.40;0.40;;;;;;;;;;5112762;28;20257;-75
2024/01/12 09:43:22;;;;;;;0.37;0.37;;;;;;;;;;5123376;28;20203;-74
2024/01/12 09:45:50;;;;;;;0.30;0.30;;;;;;;;;;5113063;28;20240;-74
2024/01/12 09:48:19;;;;;;;0.30;0.30;;;;;;;;;;5123141;28;20195;-76
2024/01/12 09:50:47;;;;;;;0.30;0.30;;;;;;;;;;5112848;28;20311;-74
2024/01/12 09:53:14;;;;;;;0.30;0.30;;;;;;;;;;5123088;28;20262;-75
2024/01/12 09:55:40;;;;;;;0.30;0.30;;;;;;;;;;5112977;28;20246;-75
2024/01/12 09:58:09;;;;;;;0.30;0.30;;;;;;;;;;5122994;28;20210;-74
2024/01/12 10:00:37;;;;;;;0.30;0.30;;;;;;;;;;5112623;28;20237;-75
2024/01/12 10:03:04;;;;;;;0.30;0.30;;;;;;;;;;5123311;28;20213;-76
2024/01/12 10:05:32;;;;;;;0.30;0.30;;;;;;;;;;5115311;28;20247;-75
2024/01/12 10:07:59;;;;;;;0.30;0.30;;;;;;;;;;5126973;28;20192;-75
2024/01/12 10:10:25;;;;;;;0.30;0.30;;;;;;;;;;5117106;28;20373;-75
2024/01/12 10:12:52;;;;;;;0.30;0.30;;;;;;;;;;5126800;28;20198;-76
2024/01/12 10:15:19;;;;;;;0.30;0.30;;;;;;;;;;5116707;28;20206;-75
2024/01/12 10:17:45;;;;;;;0.30;0.30;;;;;;;;;;5126788;28;20184;-75
2024/01/12 10:20:12;;;;;;;0.30;0.30;;;;;;;;;;5117107;28;20211;-75
2024/01/12 10:22:39;;;;;;;0.30;0.30;;;;;;;;;;5126444;28;20196;-75
2024/01/12 10:25:06;;;;;;;0.50;0.50;;;;;;;;;;5127585;28;20458;-75
2024/01/12 10:27:33;;;;;;;0.30;0.30;;;;;;;;;;5115818;28;20239;-75
2024/01/12 10:29:59;;;;;;;0.30;0.30;;;;;;;;;;5127422;28;20229;-74
2024/01/12 10:32:26;;;;;;;0.40;0.40;;;;;;;;;;5115679;28;20267;-75
2024/01/12 10:34:53;;;;;;;0.30;0.30;;;;;;;;;;5127257;28;20278;-75
2024/01/12 10:37:20;;;;;;;0.30;0.30;;;;;;;;;;5115435;28;20640;-74
2024/01/12 10:39:49;;;;;;;0.30;0.30;;;;;;;;;;5126942;28;20203;-74
2024/01/12 10:42:15;;;;;;;0.30;0.30;;;;;;;;;;5115354;28;20237;-75
2024/01/12 10:44:42;;;;;;;0.30;0.30;;;;;;;;;;5126983;28;20204;-74
2024/01/12 10:47:14;;;;;;;0.30;0.30;;;;;;;;;;5115342;28;20504;-74
2024/01/12 10:49:45;;;;;;;0.30;0.30;;;;;;;;;;5126811;28;20220;-74
2024/01/12 10:52:14;;;;;;;0.30;0.30;;;;;;;;;;5115250;28;20250;-75
2024/01/12 10:54:44;;;;;;;0.30;0.30;;;;;;;;;;5126638;28;20270;-75
2024/01/12 10:57:13;;;;;;;0.37;0.37;;;;;;;;;;5115123;28;20246;-74
2024/01/12 10:59:39;;;;;;;0.30;0.30;;;;;;;;;;5126635;28;20230;-74
2024/01/12 11:02:06;;;;;;;0.30;0.30;;;;;;;;;;5115073;28;20312;-74
2024/01/12 11:04:33;;;;;;;0.30;0.30;;;;;;;;;;5126624;28;20251;-74
2024/01/12 11:07:01;;;;;;;0.30;0.30;;;;;;;;;;5115073;28;20244;-74
2024/01/12 11:09:28;;;;;;;0.30;0.30;;;;;;;;;;5126742;28;20301;-75
2024/01/12 11:11:56;;;;;;;0.60;0.60;;;;;;;;;;5115190;28;20237;-75
2024/01/12 11:14:24;;;;;;;0.30;0.30;;;;;;;;;;5126624;28;20389;-74
2024/01/12 11:16:51;;;;;;;0.30;0.30;;;;;;;;;;5113730;28;20404;-75
2024/01/12 11:19:19;;;;;;;0.30;0.30;;;;;;;;;;5126373;28;20213;-75
2024/01/12 11:21:46;;;;;;;0.30;0.30;;;;;;;;;;5114896;28;20324;-76
2024/01/12 11:24:12;;;;;;;0.30;0.30;;;;;;;;;;5125940;28;20244;-76
2024/01/12 11:26:41;;;;;;;0.33;0.33;;;;;;;;;;5114861;28;20274;-75
2024/01/12 11:29:12;;;;;;;0.30;0.30;;;;;;;;;;5126206;28;20528;-76
2024/01/12 11:31:48;;;;;;;0.30;0.30;;;;;;;;;;5114650;28;20240;-75
2024/01/12 11:34:15;;;;;;;0.30;0.30;;;;;;;;;;5125880;28;20216;-75
2024/01/12 11:36:42;;;;;;;0.30;0.30;;;;;;;;;;5114595;28;20293;-75
2024/01/12 11:39:11;;;;;;;0.40;0.40;;;;;;;;;;5125635;28;20233;-75
2024/01/12 11:41:37;;;;;;;0.40;0.40;;;;;;;;;;5114602;28;20289;-74
2024/01/12 11:44:04;;;;;;;0.30;0.30;;;;;;;;;;5125491;28;20204;-75
2024/01/12 11:46:31;;;;;;;0.30;0.30;;;;;;;;;;5114614;28;20244;-75
2024/01/12 11:48:59;;;;;;;0.30;0.30;;;;;;;;;;5125667;28;20539;-74
2024/01/12 11:51:27;;;;;;;0.30;0.30;;;;;;;;;;5114568;28;20256;-75
2024/01/12 11:53:56;;;;;;;0.30;0.30;;;;;;;;;;5125588;28;20261;-75
2024/01/12 11:56:22;;;;;;;0.30;0.30;;;;;;;;;;5114448;28;20242;-74
2024/01/12 11:58:49;;;;;;;3.30;3.20;;;;;;;;;;5125227;28;20269;-74
2024/01/12 12:01:15;;;;;;;0.30;0.30;;;;;;;;;;5114217;28;20293;-74
2024/01/12 12:03:42;;;;;;;0.30;0.30;;;;;;;;;;5124993;28;20216;-75
2024/01/12 12:06:11;;;;;;;0.30;0.30;;;;;;;;;;5114021;28;20242;-75
2024/01/12 12:08:38;;;;;;;0.57;0.57;;;;;;;;;;5124803;28;20208;-75
2024/01/12 12:11:05;;;;;;;0.30;0.30;;;;;;;;;;5114163;28;20267;-79
2024/01/12 12:13:32;;;;;;;0.30;0.30;;;;;;;;;;5125033;28;20202;-79
2024/01/12 12:15:58;;;;;;;0.40;0.40;;;;;;;;;;5114381;28;20241;-78
2024/01/12 12:18:26;;;;;;;0.30;0.30;;;;;;;;;;5124745;28;20543;-77
2024/01/12 12:20:53;;;;;;;0.30;0.30;;;;;;;;;;5113912;28;20343;-78
2024/01/12 12:23:21;;;;;;;0.30;0.30;;;;;;;;;;5124623;28;20335;-77
2024/01/12 12:25:48;;;;;;;0.30;0.30;;;;;;;;;;5114054;28;20237;-77
2024/01/12 12:28:15;;;;;;;0.30;0.30;;;;;;;;;;5124322;28;20260;-77
2024/01/12 12:30:41;;;;;;;0.30;0.30;;;;;;;;;;5113880;28;20244;-77
2024/01/12 12:33:08;;;;;;;0.30;0.30;;;;;;;;;;5124584;28;20192;-78
2024/01/12 12:35:35;;;;;;;0.30;0.30;;;;;;;;;;5114009;28;20240;-78
2024/01/12 12:38:02;;;;;;;0.30;0.30;;;;;;;;;;5124033;28;20519;-76
2024/01/12 12:40:30;;;;;;;0.30;0.30;;;;;;;;;;5114201;28;20208;-79
2024/01/12 12:42:57;;;;;;;0.30;0.30;;;;;;;;;;5123809;28;20256;-78
2024/01/12 12:45:24;;;;;;;0.30;0.30;;;;;;;;;;5114014;28;20353;-78
2024/01/12 12:47:51;;;;;;;0.30;0.30;;;;;;;;;;5123906;28;20250;-78
2024/01/12 12:50:18;;;;;;;0.30;0.30;;;;;;;;;;5113746;28;20223;-77
2024/01/12 12:52:45;;;;;;;0.30;0.30;;;;;;;;;;5123712;28;20256;-78
2024/01/12 12:55:11;;;;;;;0.30;0.30;;;;;;;;;;5119030;28;20224;-78
2024/01/12 12:57:40;;;;;;;0.30;0.30;;;;;;;;;;5123341;28;20223;-78
2024/01/12 13:00:09;;;;;;;0.30;0.30;;;;;;;;;;5124574;28;20212;-78
2024/01/12 13:02:36;;;;;;;0.30;0.30;;;;;;;;;;5095761;28;20416;-78
2024/01/12 13:05:03;;;;;;;0.30;0.30;;;;;;;;;;5124048;28;20255;-78
2024/01/12 13:07:29;;;;;;;0.33;0.33;;;;;;;;;;5112542;28;20471;-78
2024/01/12 13:09:55;;;;;;;0.30;0.30;;;;;;;;;;5124039;28;20199;-78
2024/01/12 13:12:22;;;;;;;0.30;0.30;;;;;;;;;;5112462;28;20259;-77
2024/01/12 13:14:51;;;;;;;0.30;0.30;;;;;;;;;;5124378;28;20209;-78
2024/01/12 13:17:20;;;;;;;0.30;0.30;;;;;;;;;;5112385;28;20498;-78
2024/01/12 13:19:46;;;;;;;0.30;0.30;;;;;;;;;;5123962;28;20407;-78
2024/01/12 13:22:12;;;;;;;0.30;0.30;;;;;;;;;;5112334;28;20253;-77
2024/01/12 13:24:39;;;;;;;0.30;0.30;;;;;;;;;;5123978;28;20242;-78
2024/01/12 13:27:05;;;;;;;0.30;0.30;;;;;;;;;;5112241;28;20262;-78
2024/01/12 13:29:32;;;;;;;0.30;0.30;;;;;;;;;;5124199;28;20512;-78
2024/01/12 13:32:02;;;;;;;0.30;0.30;;;;;;;;;;5112318;28;20245;-78
2024/01/12 13:34:29;;;;;;;0.30;0.30;;;;;;;;;;5123914;28;20214;-78
2024/01/12 13:37:00;;;;;;;0.30;0.30;;;;;;;;;;5112330;28;20248;-78
2024/01/12 13:39:26;;;;;;;0.30;0.30;;;;;;;;;;5123081;28;20258;-79
2024/01/12 13:41:53;;;;;;;0.30;0.30;;;;;;;;;;5112082;28;20301;-79
2024/01/12 13:44:19;;;;;;;0.37;0.37;;;;;;;;;;5123849;28;20275;-78
2024/01/12 13:46:46;;;;;;;0.30;0.30;;;;;;;;;;5112421;28;20268;-78
2024/01/12 13:49:14;;;;;;;0.30;0.30;;;;;;;;;;5123530;28;20201;-79
2024/01/12 13:51:41;;;;;;;0.33;0.33;;;;;;;;;;5112237;28;20263;-79
2024/01/12 13:54:08;;;;;;;0.30;0.30;;;;;;;;;;5123641;28;20204;-79
2024/01/12 13:56:34;;;;;;;0.30;0.30;;;;;;;;;;5112498;28;20236;-79
2024/01/12 13:59:02;;;;;;;0.30;0.30;;;;;;;;;;5123429;28;20210;-79
2024/01/12 14:01:28;;;;;;;0.30;0.30;;;;;;;;;;5112216;28;20247;-78
2024/01/12 14:03:55;;;;;;;0.30;0.30;;;;;;;;;;5123276;28;20277;-79
2024/01/12 14:06:24;;;;;;;0.30;0.30;;;;;;;;;;5112489;28;20238;-79
2024/01/12 14:08:51;;;;;;;0.30;0.30;;;;;;;;;;5123600;28;20532;-79
2024/01/12 14:11:17;;;;;;;0.30;0.30;;;;;;;;;;5112507;28;20341;-79
2024/01/12 14:13:47;;;;;;;0.30;0.30;;;;;;;;;;5123228;28;20273;-79
2024/01/12 14:16:13;;;;;;;0.30;0.30;;;;;;;;;;5112407;28;20239;-79
2024/01/12 14:18:40;;;;;;;0.30;0.30;;;;;;;;;;5123398;28;20205;-79
2024/01/12 14:21:06;;;;;;;0.30;0.30;;;;;;;;;;5112611;28;20286;-80
2024/01/12 14:23:34;;;;;;;0.30;0.30;;;;;;;;;;5122773;28;20285;-79
2024/01/12 14:26:01;;;;;;;0.20;0.20;;;;;;;;;;5112980;28;20240;-79
2024/01/12 14:28:27;;;;;;;0.30;0.30;;;;;;;;;;5123182;28;20204;-79
2024/01/12 14:30:54;;;;;;;0.30;0.30;;;;;;;;;;5112437;28;20239;-78
2024/01/12 14:33:20;;;;;;;0.30;0.30;;;;;;;;;;5122675;28;20365;-79
2024/01/12 14:35:47;;;;;;;0.30;0.30;;;;;;;;;;5112655;28;20248;-79
2024/01/12 14:38:14;;;;;;;0.30;0.30;;;;;;;;;;5122842;28;20261;-79
2024/01/12 14:40:41;;;;;;;0.30;0.30;;;;;;;;;;5112410;28;20241;-80